»·PEaware :: N573BZ KSNA-KOXR

N573BZ :: KSNA-KOXR

FLIGHT INFORMATION

Flight Status: Arrived
Operator: Privately registered:
United States
More flights under this callsign
Pilot: Ed S. (33230)
Aircraft: Unknown
(P28S)
More flights by this aircraft type
Origin: KSNA John Wayne-Orange Co
United States
Destination: KOXR Oxnard
United States
More flights between these airports :: More routes between these airports
Route: SLI V23 POPPR SMO125 SMO VNY
File this flight plan on PilotEdge
Remarks:
Altitude:
(Current/Filed)
4,000ft
Speed:
(Current/Filed)
130kts
Departed: 29-Jan-21 09:01 AM
Arrived: 29-Jan-21 09:44 AM
Distance/Time
Traveled:
74nm/0:43
Distance/Time
To Go:
Arrived

Flight Plot

Page will automatically refresh every two minutes.


Map Options




Map Legend


Flown Route
Filed Route
Departure Airport
Arrival Airport
Navaid (VOR, NDB)
Fix

Horizontal Profiles

Position Reports

Time Latitude Longitude Heading Altitude Ground
Speed
29-Jan-21 08:36 33.669221 -117.870047 41 59ft 0kts
29-Jan-21 08:37 33.669221 -117.870047 41 59ft 0kts
29-Jan-21 08:38 33.669221 -117.870047 41 59ft 0kts
29-Jan-21 08:39 33.669221 -117.870047 41 59ft 0kts
29-Jan-21 08:40 33.669221 -117.870047 41 59ft 0kts
29-Jan-21 08:41 33.669221 -117.870047 41 59ft 0kts
29-Jan-21 08:42 33.669221 -117.870047 41 59ft 0kts
29-Jan-21 08:43 33.669221 -117.870047 41 59ft 0kts
29-Jan-21 08:44 33.669221 -117.870047 41 59ft 0kts
29-Jan-21 08:46 33.669221 -117.870047 41 59ft 0kts
29-Jan-21 08:47 33.669221 -117.870047 41 59ft 0kts
29-Jan-21 08:48 33.669221 -117.870047 41 59ft 0kts
29-Jan-21 08:49 33.669221 -117.870047 41 59ft 0kts
29-Jan-21 08:50 33.669221 -117.870047 41 59ft 0kts
29-Jan-21 08:51 33.669221 -117.870047 41 59ft 0kts
29-Jan-21 08:52 33.669280 -117.870037 343 59ft 0kts
29-Jan-21 08:53 33.670312 -117.869694 39 59ft 10kts
29-Jan-21 08:54 33.673182 -117.867138 42 59ft 7kts
29-Jan-21 08:55 33.675411 -117.866258 28 59ft 9kts
29-Jan-21 08:56 33.677882 -117.864678 27 59ft 10kts
29-Jan-21 08:57 33.679946 -117.863585 297 59ft 7kts
29-Jan-21 08:58 33.679971 -117.863648 295 59ft 0kts
29-Jan-21 08:59 33.679971 -117.863648 295 59ft 0kts
29-Jan-21 09:00 33.679983 -117.863679 295 59ft 1kts
29-Jan-21 09:01 33.673946 -117.868277 207 295ft 70kts
29-Jan-21 09:03 33.639684 -117.919249 231 1677ft 106kts
29-Jan-21 09:04 33.623388 -117.946515 231 2553ft 96kts
29-Jan-21 09:05 33.611669 -117.973877 285 3379ft 102kts
29-Jan-21 09:06 33.639660 -117.985008 350 3996ft 125kts
29-Jan-21 09:07 33.683571 -117.992739 339 3995ft 140kts
29-Jan-21 09:08 33.712328 -118.010664 328 3997ft 139kts
29-Jan-21 09:09 33.746187 -118.031909 329 3998ft 135kts
29-Jan-21 09:10 33.783435 -118.058259 298 3995ft 131kts
29-Jan-21 09:10 33.791489 -118.085516 282 3997ft 129kts
29-Jan-21 09:13 33.813518 -118.173271 288 3992ft 122kts
29-Jan-21 09:14 33.823439 -118.212333 288 3991ft 122kts
29-Jan-21 09:14 33.831699 -118.244894 288 3990ft 122kts
29-Jan-21 09:15 33.841582 -118.283812 290 3989ft 121kts
29-Jan-21 09:16 33.865601 -118.311566 320 3989ft 120kts
29-Jan-21 09:18 33.897736 -118.343576 315 4000ft 133kts
29-Jan-21 09:18 33.921480 -118.367375 316 4000ft 133kts
29-Jan-21 09:21 33.986276 -118.432467 317 3991ft 126kts
29-Jan-21 09:21 34.004097 -118.450420 318 3990ft 125kts
29-Jan-21 09:22 34.037285 -118.461608 350 3986ft 126kts
29-Jan-21 09:24 34.077670 -118.467682 350 3982ft 124kts
29-Jan-21 09:25 34.090272 -118.503354 281 3983ft 124kts
29-Jan-21 09:25 34.094983 -118.537803 282 3985ft 124kts
29-Jan-21 09:26 34.100603 -118.578920 282 3987ft 124kts
29-Jan-21 09:28 34.107164 -118.627099 282 3988ft 124kts
29-Jan-21 09:29 34.114589 -118.682204 281 3989ft 124kts
29-Jan-21 09:31 34.129674 -118.748524 300 3988ft 123kts
29-Jan-21 09:31 34.143502 -118.778559 300 3988ft 122kts
29-Jan-21 09:32 34.159923 -118.814605 300 3987ft 122kts
29-Jan-21 09:33 34.176244 -118.850850 300 3986ft 122kts
29-Jan-21 09:35 34.191415 -118.894983 272 3985ft 127kts
29-Jan-21 09:36 34.189999 -118.937611 271 3985ft 127kts
29-Jan-21 09:37 34.190801 -118.980152 281 3985ft 125kts
29-Jan-21 09:37 34.194807 -119.015003 281 3985ft 126kts
29-Jan-21 09:39 34.199346 -119.064762 278 3830ft 133kts
29-Jan-21 09:41 34.199607 -119.140189 274 2318ft 82kts
29-Jan-21 09:41 34.199272 -119.160348 273 988ft 63kts
29-Jan-21 09:42 34.200646 -119.186242 272 306ft 86kts
29-Jan-21 09:44 34.199960 -119.203182 190 39ft 0kts
29-Jan-21 09:45 34.199779 -119.203852 271 39ft 12kts
29-Jan-21 09:46 34.199035 -119.206577 3 36ft 0kts
29-Jan-21 09:47 34.199035 -119.206577 3 36ft 0kts
29-Jan-21 09:48 34.199035 -119.206577 3 36ft 0kts

Navigation Log

Ident Type
Flight plan parsing failed, navigation log unavailable